Time;durP1;ratioP1;P1;durP2;ratioP2;P2;SDS_P1;SDS_P2;PMS_P1;PMS_P2;Temp;Humidity;BMP_temperature;BMP_pressure;BME280_temperature;BME280_humidity;BME280_pressure;Samples;Min_cycle;Max_cycle;Signal;HPM_P1;HPM_P2
2023/03/03 00:11:24;;;;;;;14.63;6.70;;;;;;;4.66;100.00;100501.75;31331239;28;20170;-75
2023/03/03 00:26:35;;;;;;;14.23;6.80;;;;;;;4.71;100.00;100487.97;31328180;28;20046;-75
2023/03/03 00:41:38;;;;;;;13.43;6.20;;;;;;;4.59;100.00;100486.31;31344832;28;20139;-75
2023/03/03 00:56:40;;;;;;;13.20;5.83;;;;;;;4.25;100.00;100461.34;31326599;28;20532;-75
2023/03/03 01:11:42;;;;;;;12.23;5.57;;;;;;;4.05;100.00;100451.88;31317034;28;20049;-77
2023/03/03 01:26:44;;;;;;;15.60;8.33;;;;;;;4.30;100.00;100439.50;31323447;28;20056;-75
2023/03/03 01:41:46;;;;;;;11.77;6.73;;;;;;;4.28;100.00;100439.09;31342692;28;20045;-74
2023/03/03 01:56:50;;;;;;;13.77;6.30;;;;;;;4.35;100.00;100423.06;31329385;28;20111;-75
2023/03/03 02:11:55;;;;;;;15.90;7.57;;;;;;;4.22;100.00;100424.47;31317641;28;20061;-76
2023/03/03 02:26:58;;;;;;;15.07;7.80;;;;;;;4.10;100.00;100405.91;31329775;28;20044;-76
2023/03/03 02:42:27;;;;;;;10.87;6.57;;;;;;;3.96;100.00;100400.38;31356058;28;20876;-76
2023/03/03 02:57:29;;;;;;;11.23;5.63;;;;;;;3.78;100.00;100375.22;31363413;28;20163;-76
2023/03/03 03:12:31;;;;;;;9.60;5.67;;;;;;;3.60;100.00;100367.69;31349774;28;20045;-75
2023/03/03 03:27:33;;;;;;;13.67;6.67;;;;;;;3.52;100.00;100366.06;31344510;28;20053;-75
2023/03/03 03:42:36;;;;;;;23.13;12.63;;;;;;;3.60;100.00;100359.63;31352021;28;20392;-75
2023/03/03 03:57:38;;;;;;;29.20;14.77;;;;;;;3.55;100.00;100349.22;31344814;28;20052;-76
2023/03/03 04:12:40;;;;;;;23.53;14.30;;;;;;;3.48;100.00;100354.50;31346838;28;20057;-76
2023/03/03 04:27:42;;;;;;;20.33;10.17;;;;;;;3.47;100.00;100344.13;31371383;28;20501;-87
2023/03/03 04:42:44;;;;;;;20.10;9.20;;;;;;;3.47;100.00;100339.53;31374798;28;20054;-87
2023/03/03 04:57:46;;;;;;;15.60;6.97;;;;;;;3.56;100.00;100340.03;31356802;28;20064;-87
2023/03/03 05:13:15;;;;;;;13.97;6.73;;;;;;;4.13;100.00;100354.13;31445822;28;20060;-87
2023/03/03 05:28:17;;;;;;;13.43;7.17;;;;;;;5.11;100.00;100345.34;31450849;28;20057;-86
2023/03/03 05:43:19;;;;;;;16.73;8.07;;;;;;;5.86;100.00;100347.63;31395523;28;20608;-89
2023/03/03 05:58:21;;;;;;;16.67;7.30;;;;;;;6.90;100.00;100336.59;31426353;28;20493;-86
2023/03/03 06:13:26;;;;;;;15.77;7.30;;;;;;;7.59;100.00;100336.03;31414128;28;20548;-89
2023/03/03 06:28:27;;;;;;;17.87;8.47;;;;;;;8.67;100.00;100331.56;31444446;28;20056;-87
2023/03/03 06:43:29;;;;;;;13.83;5.20;;;;;;;9.76;91.97;100321.50;31372748;28;20555;-87
2023/03/03 06:58:34;;;;;;;11.17;4.90;;;;;;;8.87;100.00;100327.13;31420471;28;20087;-84
2023/03/03 07:13:43;;;;;;;15.27;6.90;;;;;;;9.45;100.00;100314.53;31362401;28;20049;-87
2023/03/03 07:28:57;;;;;;;9.60;5.23;;;;;;;12.49;76.14;100304.88;31412225;28;20120;-83
2023/03/03 07:44:06;;;;;;;14.40;4.93;;;;;;;13.34;65.17;100303.88;31403133;28;20114;-84
2023/03/03 07:59:21;;;;;;;14.73;5.70;;;;;;;12.08;73.61;100296.50;31383721;28;20064;-86
2023/03/03 08:14:30;;;;;;;10.83;4.70;;;;;;;11.91;72.21;100282.09;31396234;28;20060;-85
2023/03/03 08:29:31;;;;;;;12.80;5.53;;;;;;;10.92;80.40;100279.41;31399297;28;20083;-86
2023/03/03 08:44:33;;;;;;;17.57;5.93;;;;;;;11.32;79.12;100268.59;31367854;28;20118;-79
2023/03/03 08:59:37;;;;;;;13.43;6.37;;;;;;;11.90;74.31;100259.56;31372376;28;20119;-81
2023/03/03 09:14:39;;;;;;;12.37;5.40;;;;;;;12.32;72.59;100238.00;31392290;28;20075;-84
2023/03/03 09:29:41;;;;;;;18.00;7.07;;;;;;;12.22;73.52;100219.97;31380947;28;20060;-80
2023/03/03 09:45:12;;;;;;;12.43;6.17;;;;;;;12.59;69.55;100205.78;31383805;28;20623;-82
2023/03/03 10:00:38;;;;;;;10.67;4.90;;;;;;;13.63;61.58;100170.94;31407604;28;20060;-81
2023/03/03 10:16:20;;;;;;;12.77;4.53;;;;;;;13.70;57.69;100148.13;31396329;28;20049;-84
2023/03/03 10:31:35;;;;;;;7.83;4.60;;;;;;;13.31;56.12;100114.66;31367674;28;20045;-82
2023/03/03 10:46:45;;;;;;;8.90;3.80;;;;;;;12.90;55.15;100099.13;31392859;28;20048;-81
2023/03/03 11:01:58;;;;;;;9.93;4.27;;;;;;;12.59;56.71;100075.06;31387829;28;20055;-82
2023/03/03 11:17:26;;;;;;;8.07;3.83;;;;;;;12.19;54.66;100073.88;31392523;28;20141;-82
2023/03/03 11:32:44;;;;;;;7.63;3.60;;;;;;;11.70;55.08;100062.28;31365212;28;20474;-82
2023/03/03 11:48:04;;;;;;;6.17;3.80;;;;;;;11.01;60.22;100054.19;31361472;28;20121;-83
2023/03/03 12:03:13;;;;;;;8.73;4.67;;;;;;;11.17;60.66;100045.28;31371237;28;20468;-82
2023/03/03 12:18:37;;;;;;;8.57;4.60;;;;;;;10.75;62.13;100041.56;31390477;28;20049;-80
2023/03/03 12:33:55;;;;;;;9.57;5.43;;;;;;;10.47;62.29;100032.81;31389745;28;20445;-77
2023/03/03 12:48:57;;;;;;;12.43;5.60;;;;;;;10.24;64.52;100022.81;31374149;28;20498;-78
2023/03/03 13:04:30;;;;;;;10.93;6.30;;;;;;;9.84;66.47;100011.16;31353884;28;20067;-77
2023/03/03 13:19:47;;;;;;;13.50;6.60;;;;;;;9.54;68.27;100000.44;31353143;28;20084;-77
2023/03/03 13:35:16;;;;;;;10.87;5.47;;;;;;;9.29;72.87;99986.56;31345895;28;20079;-78
2023/03/03 13:50:56;;;;;;;10.00;6.17;;;;;;;9.07;78.08;99962.53;31353408;28;20056;-78
2023/03/03 14:06:04;;;;;;;8.23;5.47;;;;;;;9.36;78.87;99957.41;31365151;28;20432;-78
2023/03/03 14:21:18;;;;;;;9.03;5.43;;;;;;;9.38;79.15;99954.28;31370664;28;20106;-78
2023/03/03 14:36:31;;;;;;;11.37;6.33;;;;;;;9.29;81.33;99929.66;31355193;28;20049;-77
2023/03/03 14:51:47;;;;;;;15.53;6.40;;;;;;;9.16;84.35;99932.22;31365510;28;20049;-77
2023/03/03 15:06:54;;;;;;;13.20;5.73;;;;;;;9.13;89.38;99925.69;31366637;28;20041;-78
2023/03/03 15:22:26;;;;;;;9.53;5.10;;;;;;;9.09;94.36;99919.56;31375786;28;20098;-78
2023/03/03 15:37:51;;;;;;;13.37;5.43;;;;;;;8.89;98.36;99921.44;31330872;28;20044;-77
2023/03/03 15:53:09;;;;;;;15.33;5.90;;;;;;;8.87;100.00;99921.84;31353030;28;20044;-83
2023/03/03 16:08:16;;;;;;;11.03;6.07;;;;;;;8.84;100.00;99927.31;31391413;28;20476;-84
2023/03/03 16:23:30;;;;;;;19.50;6.50;;;;;;;8.77;100.00;99922.00;31392868;28;20049;-86
2023/03/03 16:38:42;;;;;;;23.13;7.97;;;;;;;8.55;100.00;99913.41;31392361;28;20049;-84
2023/03/03 16:53:54;;;;;;;19.93;7.37;;;;;;;8.52;100.00;99906.88;31362807;28;20091;-79
2023/03/03 17:09:14;;;;;;;22.03;8.37;;;;;;;8.57;100.00;99902.97;31357648;28;20048;-83
2023/03/03 17:24:59;;;;;;;21.07;10.00;;;;;;;8.57;100.00;99891.38;31368078;28;20080;-80
2023/03/03 17:40:35;;;;;;;16.87;8.20;;;;;;;8.44;100.00;99883.84;31362784;28;20059;-80
2023/03/03 17:55:49;;;;;;;17.20;7.20;;;;;;;8.32;100.00;99881.66;31346388;28;20469;-78
2023/03/03 18:11:04;;;;;;;12.23;6.47;;;;;;;8.21;100.00;99883.75;31368036;28;20514;-82
2023/03/03 18:26:27;;;;;;;12.63;7.00;;;;;;;8.15;100.00;99871.84;31372899;28;20061;-78
2023/03/03 18:42:06;;;;;;;21.87;8.60;;;;;;;8.24;100.00;99868.66;31347236;28;20505;-81
2023/03/03 18:57:15;;;;;;;11.77;6.93;;;;;;;8.18;100.00;99885.31;31342452;28;20506;-84
2023/03/03 19:12:38;;;;;;;23.17;9.63;;;;;;;8.02;100.00;99895.19;31354354;28;20137;-81
2023/03/03 19:28:20;;;;;;;17.60;8.70;;;;;;;8.10;100.00;99888.50;31371303;28;20053;-76
2023/03/03 19:43:37;;;;;;;17.73;8.20;;;;;;;8.09;100.00;99885.03;31362524;28;20079;-85
2023/03/03 19:58:57;;;;;;;17.40;8.73;;;;;;;8.11;100.00;99893.53;31379870;28;20065;-84
2023/03/03 20:14:18;;;;;;;24.43;10.40;;;;;;;7.88;100.00;99880.69;31376981;28;20467;-78
2023/03/03 20:29:49;;;;;;;17.57;8.93;;;;;;;7.67;100.00;99874.75;31364305;28;20051;-82
2023/03/03 20:45:17;;;;;;;21.90;8.80;;;;;;;7.58;100.00;99853.63;31369260;28;20049;-86
2023/03/03 21:00:31;;;;;;;21.43;9.50;;;;;;;7.61;100.00;99828.50;31345920;28;20057;-81
2023/03/03 21:15:34;;;;;;;16.57;8.90;;;;;;;7.66;100.00;99830.00;31364717;28;20080;-80
2023/03/03 21:31:00;;;;;;;16.60;8.87;;;;;;;7.66;100.00;99813.78;31354664;28;20048;-80
2023/03/03 21:46:02;;;;;;;20.83;10.83;;;;;;;7.47;100.00;99807.06;31371934;28;20059;-86
2023/03/03 22:01:05;;;;;;;16.30;8.93;;;;;;;7.32;100.00;99800.31;31364441;28;20061;-89
2023/03/03 22:16:07;;;;;;;21.70;11.17;;;;;;;7.19;100.00;99792.72;31383862;28;20106;-86
2023/03/03 22:31:09;;;;;;;19.47;9.30;;;;;;;6.90;100.00;99783.38;31354003;28;20053;-85
2023/03/03 22:46:11;;;;;;;20.30;10.00;;;;;;;6.73;100.00;99782.41;31343822;28;20125;-86
2023/03/03 23:01:13;;;;;;;22.73;10.30;;;;;;;6.72;100.00;99788.19;31370770;28;20059;-75
2023/03/03 23:16:15;;;;;;;18.60;8.63;;;;;;;6.64;100.00;99784.00;31393382;28;20103;-75
2023/03/03 23:31:17;;;;;;;17.73;7.73;;;;;;;7.05;100.00;99767.84;31354384;28;20056;-75
2023/03/03 23:46:19;;;;;;;17.37;8.47;;;;;;;6.87;100.00;99759.91;31359616;28;20513;-74
